• Join FlightAware (Why Join?)
  • Login
  • US Flag 
11:30PM EDT


 

Airport Tracker/Info


-or-


 

Live Flight TrackerFlight Track Log ✈ SKW2953 ✈ 07-May-2013 ✈ KPHX - KNYL

Flight Track Log - Related Links

Times and Time Zones

All times are in EDT time to prevent confusion due to time zone crossing. See the SKW2953 flight status page for this flight to view local times or setup timezone preferences in your user account.

Time Position Orientation Groundspeed Altitude Reporting Facility
EDT Latitude Longitude Course Direction KTS MPH feet Rate Location/Type
04:53PM 33.4333 -112.0333 248° West 84 97 1,700  Level Phoenix TRACON
04:54PM 33.4167 -112.0833 248° West 181 208 3,500 2,040 Climbing Phoenix TRACON
04:55PM 33.4000 -112.1500 253° West 257 296 5,700 2,520 Climbing Phoenix TRACON
04:56PM 33.3500 -112.2000 220° Southwest 267 307 8,700 3,180 Climbing Phoenix TRACON
04:57PM 33.2667 -112.2333 198° South 266 306 12,100 2,640 Climbing Phoenix TRACON
04:58PM 33.2000 -112.2667 203° Southwest 266 306 14,000 900 Climbing Phoenix TRACON
04:59PM 33.1614 -112.3322 235° Southwest 271 312 14,000  Level Albuquerque Center
05:01PM 33.1156 -112.4069 234° Southwest 274 315 14,000  Level Albuquerque Center
05:02PM 33.0594 -112.4992 234° Southwest 281 323 14,000  Level Albuquerque Center
05:03PM 33.0136 -112.5750 234° Southwest 283 326 14,000  Level Albuquerque Center
05:04PM 32.9689 -112.6508 235° Southwest 282 325 14,000  Level Albuquerque Center
05:05PM 32.9472 -112.7375 253° West 284 327 14,000  Level Albuquerque Center
05:06PM 32.9353 -112.8281 261° West 280 322 14,000  Level Albuquerque Center
05:07PM 32.9242 -112.9161 261° West 275 316 14,000  Level Albuquerque Center
05:08PM 32.9111 -113.0044 260° West 273 314 14,000  Level Albuquerque Center
05:09PM 32.8969 -113.1131 261° West 274 315 14,000  Level Albuquerque Center
05:10PM 32.8853 -113.2031 261° West 275 316 14,000  Level Albuquerque Center
05:11PM 32.8728 -113.2933 261° West 277 319 14,000  Level Albuquerque Center
05:12PM 32.8594 -113.3831 260° West 277 319 14,000  Level Albuquerque Center
05:13PM 32.8478 -113.4717 261° West 276 318 14,000  Level Albuquerque Center
05:14PM 32.8342 -113.5608 260° West 275 316 14,000 -60 Level Albuquerque Center
05:15PM 32.8197 -113.6694 261° West 277 319 13,900 -600 Descending Albuquerque Center
05:16PM 32.8078 -113.7553 261° West 271 312 12,800 -1,500 Descending Albuquerque Center
05:17PM 32.7950 -113.8397 260° West 263 303 10,800 -1,740 Descending Albuquerque Center
05:18PM 32.7839 -113.9217 261° West 257 296 9,300 -1,500 Descending Albuquerque Center
05:19PM 32.7736 -114.0053 262° West 255 293 7,800 -1,260 Descending Albuquerque Center
05:20PM 32.7717 -114.0911 268° West 259 298 6,700 -1,140 Descending Albuquerque Center
05:21PM 32.7681 -114.1625 267° West 256 295 5,900 -1,080 Descending Los Angeles Center
05:21PM 32.7606 -114.2133 260° West 250 288 5,200 -1,020 Descending Los Angeles Center
05:22PM 32.7558 -114.2419 259° West 246 283 4,900 -900 Descending Los Angeles Center
05:23PM 32.7483 -114.2936 260° West 247 284 4,300 -900 Descending Los Angeles Center
05:23PM 32.7433 -114.3214 258° West 247 284 4,000 -900 Descending Los Angeles Center
05:24PM 32.7083 -114.3942 240° Southwest 245 282 3,200 -780 Descending Los Angeles Center
05:25PM 32.6894 -114.4375 243° Southwest 243 280 2,700 -1,080 Descending Los Angeles Center
05:26PM 32.6614 -114.5078 245° Southwest 210 242 1,300 -1,020 Descending Los Angeles Center
05:27PM 32.6625 -114.5561 272° West 176 203 700 -540 Descending Los Angeles Center
05:28PM 32.6644 -114.5950 273° West 144 166 200 -540 Descending Los Angeles Center